createdAt,value
2018-04-28T00:02:23.649Z,11.69
2018-04-28T00:04:51.923Z,11.67
2018-04-28T00:07:20.240Z,11.74
2018-04-28T00:09:49.196Z,12.00
2018-04-28T00:12:17.565Z,12.11
2018-04-28T00:14:46.062Z,12.29
2018-04-28T00:17:17.876Z,12.44
2018-04-28T00:19:54.663Z,12.49
2018-04-28T00:22:25.063Z,12.46
2018-04-28T00:24:58.959Z,12.37
2018-04-28T00:27:47.173Z,12.41
2018-04-28T00:43:48.472Z,12.67
2018-04-28T00:46:32.508Z,12.84
2018-04-28T00:49:12.789Z,13.01
2018-04-28T00:51:42.000Z,13.01
2018-04-28T00:54:18.404Z,12.97
2018-04-28T01:10:52.607Z,12.26
2018-04-28T01:13:20.891Z,12.10
2018-04-28T01:15:49.319Z,11.85
2018-04-28T01:18:17.680Z,11.71
2018-04-28T01:20:49.852Z,11.60
2018-04-28T01:23:25.335Z,11.71
2018-04-28T01:25:54.253Z,11.55
2018-04-28T01:28:41.347Z,11.43
2018-04-28T01:31:09.623Z,11.21
2018-04-28T01:47:23.794Z,10.96
2018-04-28T01:49:57.967Z,11.15
2018-04-28T01:52:34.829Z,11.23
2018-04-28T02:08:30.812Z,10.93
2018-04-28T02:11:00.008Z,10.86
2018-04-28T02:13:48.231Z,10.92
2018-04-28T02:16:21.700Z,10.96
2018-04-28T02:19:06.294Z,10.89
2018-04-28T02:35:36.481Z,10.49
2018-04-28T02:38:11.492Z,10.57
2018-04-28T02:54:10.576Z,10.40
2018-04-28T03:10:24.112Z,10.55
2018-04-28T03:12:52.403Z,10.63
2018-04-28T03:15:20.688Z,10.91
2018-04-28T03:17:54.239Z,10.91
2018-04-28T03:20:24.407Z,10.93
2018-04-28T03:22:59.224Z,10.99
2018-04-28T03:25:43.079Z,11.04
2018-04-28T03:28:24.835Z,11.03
2018-04-28T03:30:56.846Z,11.06
2018-04-28T03:33:45.487Z,11.08
2018-04-28T03:36:30.655Z,10.91
2018-04-28T03:39:18.238Z,11.03
2018-04-28T03:41:57.275Z,10.92
2018-04-28T03:45:03.112Z,10.85
2018-04-28T03:47:43.120Z,10.86
2018-04-28T03:50:28.926Z,10.81
2018-04-28T03:53:04.975Z,10.70
2018-04-28T03:55:34.695Z,10.57
2018-04-28T03:58:20.714Z,10.33
2018-04-28T04:01:06.474Z,10.14
2018-04-28T04:03:34.776Z,10.14
2018-04-28T04:19:41.606Z,9.95
2018-04-28T04:22:17.239Z,9.89
2018-04-28T04:25:15.332Z,9.81
2018-04-28T04:27:52.671Z,9.76
2018-04-28T04:44:15.491Z,10.58
2018-04-28T04:50:10.670Z,10.60
2018-04-28T04:52:49.169Z,10.57
2018-04-28T04:55:25.356Z,10.43
2018-04-28T05:12:09.500Z,10.25
2018-04-28T05:28:21.959Z,11.92
2018-04-28T05:30:58.263Z,12.02
2018-04-28T05:33:39.267Z,12.15
2018-04-28T05:36:17.272Z,12.48
2018-04-28T05:53:11.904Z,13.83
2018-04-28T05:55:57.365Z,14.24
2018-04-28T06:12:21.819Z,14.12
2018-04-28T06:28:17.605Z,14.25
2018-04-28T06:30:45.884Z,14.36
2018-04-28T06:33:14.177Z,14.04
2018-04-28T06:35:42.580Z,13.89
2018-04-28T06:38:10.808Z,14.25
2018-04-28T06:40:39.102Z,14.55
2018-04-28T06:43:07.418Z,14.68
2018-04-28T06:45:35.698Z,15.08
2018-04-28T06:48:04.622Z,15.84
2018-04-28T06:50:32.918Z,16.27
2018-04-28T06:53:01.203Z,16.61
2018-04-28T06:55:29.547Z,16.46
2018-04-28T06:57:57.835Z,16.83
2018-04-28T07:00:26.131Z,16.56
2018-04-28T07:02:54.442Z,16.39
2018-04-28T07:05:24.234Z,16.05
2018-04-28T07:07:52.570Z,15.71
2018-04-28T07:10:23.284Z,15.18
2018-04-28T07:12:51.624Z,14.33
2018-04-28T07:15:20.700Z,14.13
2018-04-28T07:17:50.474Z,13.90
2018-04-28T07:20:18.829Z,13.05
2018-04-28T07:22:47.119Z,12.44
2018-04-28T07:25:15.567Z,12.44
2018-04-28T07:27:44.570Z,12.50
2018-04-28T07:30:12.863Z,12.15
2018-04-28T07:32:41.248Z,11.88
2018-04-28T07:35:09.834Z,12.03
2018-04-28T07:37:38.462Z,12.20
2018-04-28T07:40:07.419Z,12.32
2018-04-28T07:42:36.480Z,12.77
2018-04-28T07:45:05.267Z,13.22
2018-04-28T07:47:34.186Z,13.21
2018-04-28T07:50:02.548Z,13.41
2018-04-28T07:52:30.844Z,13.42
2018-04-28T07:54:59.138Z,13.41
2018-04-28T07:57:27.456Z,13.66
2018-04-28T07:59:56.231Z,14.09
2018-04-28T08:02:24.840Z,14.14
2018-04-28T08:04:53.459Z,14.47
2018-04-28T08:07:21.787Z,14.95
2018-04-28T08:09:50.080Z,15.35
2018-04-28T08:12:18.367Z,16.10
2018-04-28T08:14:47.171Z,17.20
2018-04-28T08:17:15.535Z,18.77
2018-04-28T08:19:44.567Z,21.06
2018-04-28T08:22:12.862Z,21.51
2018-04-28T08:24:41.325Z,21.29
2018-04-28T08:27:09.623Z,21.26
2018-04-28T08:29:37.971Z,19.92
2018-04-28T08:32:06.936Z,19.36
2018-04-28T08:34:35.279Z,19.21
2018-04-28T08:37:03.643Z,19.22
2018-04-28T08:39:32.406Z,18.80
2018-04-28T08:42:01.542Z,18.01
2018-04-28T08:44:29.851Z,17.76
2018-04-28T08:46:58.303Z,17.76
2018-04-28T08:49:26.585Z,17.87
2018-04-28T08:51:54.879Z,17.81
2018-04-28T08:54:23.251Z,18.23
2018-04-28T08:56:51.588Z,17.95
2018-04-28T08:59:19.984Z,17.98
2018-04-28T09:01:48.334Z,18.38
2018-04-28T09:04:16.623Z,18.59
2018-04-28T09:06:46.739Z,18.20
2018-04-28T09:09:15.051Z,17.62
2018-04-28T09:11:43.432Z,17.61
2018-04-28T09:14:11.728Z,16.81
2018-04-28T09:16:40.015Z,16.59
2018-04-28T09:19:08.331Z,16.24
2018-04-28T09:21:36.623Z,16.25
2018-04-28T09:24:04.969Z,15.90
2018-04-28T09:26:33.259Z,16.12
2018-04-28T09:29:01.546Z,16.48
2018-04-28T09:31:29.868Z,16.67
2018-04-28T09:33:58.393Z,16.77
2018-04-28T09:36:27.872Z,17.34
2018-04-28T09:38:56.146Z,17.19
2018-04-28T09:41:24.630Z,16.92
2018-04-28T09:43:52.957Z,17.34
2018-04-28T09:46:21.345Z,17.06
2018-04-28T09:48:49.772Z,17.04
2018-04-28T09:51:18.868Z,16.26
2018-04-28T09:53:47.166Z,15.96
2018-04-28T09:56:16.252Z,16.84
2018-04-28T09:58:44.566Z,17.86
2018-04-28T10:01:18.411Z,19.33
2018-04-28T10:03:46.693Z,19.29
2018-04-28T10:06:14.978Z,20.45
2018-04-28T10:08:43.323Z,23.07
2018-04-28T10:11:11.600Z,25.71
2018-04-28T10:13:39.885Z,23.11
2018-04-28T10:16:08.243Z,22.96
2018-04-28T10:18:36.519Z,24.31
2018-04-28T10:21:04.803Z,23.84
2018-04-28T10:23:33.143Z,24.28
2018-04-28T10:26:01.703Z,22.40
2018-04-28T10:28:29.996Z,23.08
2018-04-28T10:30:58.550Z,24.90
2018-04-28T10:33:27.531Z,25.53
2018-04-28T10:35:55.816Z,24.97
2018-04-28T10:38:24.124Z,23.13
2018-04-28T10:40:53.853Z,24.15
2018-04-28T10:43:22.176Z,23.30
2018-04-28T10:45:50.516Z,25.03
2018-04-28T10:48:18.808Z,26.84
2018-04-28T10:50:47.099Z,27.16
2018-04-28T10:53:15.615Z,27.00
2018-04-28T10:55:44.022Z,27.95
2018-04-28T10:58:12.438Z,29.22
2018-04-28T11:00:40.779Z,26.95
2018-04-28T11:03:09.059Z,26.77
2018-04-28T11:05:37.425Z,27.01
2018-04-28T11:08:05.679Z,27.53
2018-04-28T11:10:33.950Z,27.51
2018-04-28T11:13:02.339Z,28.35
2018-04-28T11:15:31.563Z,26.25
2018-04-28T11:18:00.619Z,28.00
2018-04-28T11:20:28.903Z,27.75
2018-04-28T11:22:57.795Z,28.12
2018-04-28T11:25:26.769Z,27.24
2018-04-28T11:27:54.991Z,26.22
2018-04-28T11:30:23.334Z,26.35
2018-04-28T11:32:51.673Z,25.86
2018-04-28T11:35:19.924Z,25.67
2018-04-28T11:37:48.266Z,27.14
2018-04-28T11:40:16.552Z,26.24
2018-04-28T11:42:45.311Z,27.28
2018-04-28T11:45:13.638Z,26.88
2018-04-28T11:47:41.975Z,26.77
2018-04-28T11:50:10.267Z,26.04
2018-04-28T11:52:38.730Z,25.10
2018-04-28T11:55:07.019Z,23.65
2018-04-28T11:57:35.963Z,23.01
2018-04-28T12:00:04.284Z,24.78
2018-04-28T12:02:32.677Z,25.96
2018-04-28T12:05:01.075Z,27.74
2018-04-28T12:07:29.413Z,26.45
2018-04-28T12:09:57.691Z,23.67
2018-04-28T12:12:25.979Z,25.94
2018-04-28T12:14:54.313Z,27.71
2018-04-28T12:17:22.599Z,29.23
2018-04-28T12:19:50.886Z,26.88
2018-04-28T12:22:19.739Z,25.10
2018-04-28T12:24:48.791Z,24.93
2018-04-28T12:27:17.179Z,23.83
2018-04-28T12:29:45.520Z,22.93
2018-04-28T12:32:13.867Z,23.14
2018-04-28T12:34:42.979Z,23.67
2018-04-28T12:37:11.258Z,24.64
2018-04-28T12:39:40.574Z,26.61
2018-04-28T12:42:09.704Z,26.47
2018-04-28T12:44:38.052Z,27.45
2018-04-28T12:47:06.367Z,25.93
2018-04-28T12:49:34.706Z,25.88
2018-04-28T12:52:03.008Z,25.93
2018-04-28T12:54:31.302Z,26.37
2018-04-28T12:56:59.812Z,27.87
2018-04-28T12:59:28.095Z,28.65
2018-04-28T13:01:56.922Z,27.17
2018-04-28T13:04:25.270Z,29.77
2018-04-28T13:06:53.562Z,30.09
2018-04-28T13:09:21.844Z,30.39
2018-04-28T13:11:50.162Z,27.61
2018-04-28T13:14:18.436Z,30.79
2018-04-28T13:16:46.715Z,29.54
2018-04-28T13:19:15.027Z,29.31
2018-04-28T13:21:43.367Z,28.91
2018-04-28T13:24:12.080Z,28.43
2018-04-28T13:26:40.371Z,30.73
2018-04-28T13:29:09.646Z,30.10
2018-04-28T13:31:38.432Z,31.10
2018-04-28T13:34:06.706Z,27.76
2018-04-28T13:36:35.011Z,29.03
2018-04-28T13:39:03.343Z,31.91
2018-04-28T13:41:31.634Z,32.14
2018-04-28T13:44:00.083Z,30.64
2018-04-28T13:46:29.095Z,30.14
2018-04-28T13:48:57.385Z,26.83
2018-04-28T13:51:25.670Z,27.60
2018-04-28T13:53:54.283Z,30.70
2018-04-28T13:56:22.980Z,32.48
2018-04-28T13:58:51.277Z,31.59
2018-04-28T14:01:19.671Z,34.03
2018-04-28T14:03:48.000Z,28.61
2018-04-28T14:06:16.912Z,25.59
2018-04-28T14:08:45.235Z,24.96
2018-04-28T14:11:14.359Z,26.08
2018-04-28T14:13:42.879Z,25.66
2018-04-28T14:16:11.663Z,23.95
2018-04-28T14:18:40.172Z,23.76
2018-04-28T14:21:08.441Z,23.95
2018-04-28T14:23:36.790Z,26.81
2018-04-28T14:26:05.072Z,23.89
2018-04-28T14:28:33.378Z,22.64
2018-04-28T14:31:01.691Z,22.58
2018-04-28T14:33:30.035Z,21.92
2018-04-28T14:35:58.319Z,22.65
2018-04-28T14:38:26.855Z,23.43
2018-04-28T14:40:55.375Z,24.39
2018-04-28T14:43:23.747Z,22.50
2018-04-28T14:45:52.034Z,23.15
2018-04-28T14:48:21.033Z,23.06
2018-04-28T14:50:49.703Z,24.68
2018-04-28T14:53:18.112Z,24.13
2018-04-28T14:55:47.365Z,25.08
2018-04-28T14:58:15.664Z,23.81
2018-04-28T15:00:44.235Z,24.22
2018-04-28T15:03:12.556Z,22.86
2018-04-28T15:05:41.456Z,23.22
2018-04-28T15:08:10.019Z,23.62
2018-04-28T15:10:38.352Z,23.02
2018-04-28T15:13:06.631Z,22.06
2018-04-28T15:15:35.339Z,22.81
2018-04-28T15:18:03.633Z,23.31
2018-04-28T15:20:31.932Z,23.01
2018-04-28T15:23:00.386Z,23.59
2018-04-28T15:25:28.815Z,23.17
2018-04-28T15:27:58.219Z,23.15
2018-04-28T15:30:26.659Z,24.04
2018-04-28T15:32:55.769Z,24.53
2018-04-28T15:35:24.052Z,22.70
2018-04-28T15:37:53.205Z,20.74
2018-04-28T15:40:22.199Z,21.15
2018-04-28T15:42:50.813Z,21.97
2018-04-28T15:45:19.103Z,22.56
2018-04-28T15:47:48.603Z,22.35
2018-04-28T15:50:17.652Z,22.01
2018-04-28T15:52:46.839Z,21.78
2018-04-28T15:55:15.290Z,22.00
2018-04-28T15:57:43.591Z,20.78
2018-04-28T16:00:12.675Z,21.35
2018-04-28T16:02:41.069Z,22.04
2018-04-28T16:05:09.346Z,22.56
2018-04-28T16:07:37.632Z,22.14
2018-04-28T16:10:06.039Z,21.63
2018-04-28T16:12:34.327Z,21.72
2018-04-28T16:15:02.651Z,21.66
2018-04-28T16:17:31.750Z,20.83
2018-04-28T16:20:00.064Z,20.76
2018-04-28T16:22:28.419Z,20.48
2018-04-28T16:24:57.170Z,19.79
2018-04-28T16:27:26.200Z,19.62
2018-04-28T16:29:54.411Z,19.75
2018-04-28T16:32:22.732Z,19.88
2018-04-28T16:34:51.043Z,20.03
2018-04-28T16:37:19.474Z,19.90
2018-04-28T16:39:51.479Z,19.68
2018-04-28T16:42:19.812Z,19.58
2018-04-28T16:44:48.112Z,19.27
2018-04-28T16:47:16.391Z,19.20
2018-04-28T16:49:45.238Z,19.17
2018-04-28T16:52:13.528Z,19.36
2018-04-28T16:54:42.692Z,19.27
2018-04-28T16:57:11.604Z,19.18
2018-04-28T16:59:40.315Z,19.04
2018-04-28T17:02:10.258Z,19.29
2018-04-28T17:04:39.995Z,19.09
2018-04-28T17:07:08.812Z,19.00
2018-04-28T17:09:38.174Z,19.11
2018-04-28T17:12:06.479Z,18.78
2018-04-28T17:14:35.374Z,18.45
2018-04-28T17:17:03.841Z,18.52
2018-04-28T17:19:32.807Z,18.30
2018-04-28T17:22:01.896Z,18.12
2018-04-28T17:24:30.231Z,18.04
2018-04-28T17:26:58.518Z,17.96
2018-04-28T17:29:27.397Z,17.84
2018-04-28T17:31:55.713Z,17.83
2018-04-28T17:34:24.091Z,17.82
2018-04-28T17:36:53.199Z,17.81
2018-04-28T17:39:21.607Z,17.75
2018-04-28T17:41:50.571Z,17.72
2018-04-28T17:44:18.855Z,17.65
2018-04-28T17:46:47.162Z,17.67
2018-04-28T17:49:15.559Z,17.60
2018-04-28T17:51:44.402Z,17.61
2018-04-28T17:54:12.693Z,17.52
2018-04-28T17:56:41.480Z,17.49
2018-04-28T17:59:10.375Z,17.47
2018-04-28T18:01:39.133Z,17.45
2018-04-28T18:04:07.476Z,17.51
2018-04-28T18:06:35.776Z,17.44
2018-04-28T18:09:04.252Z,17.36
2018-04-28T18:11:33.205Z,17.31
2018-04-28T18:14:01.500Z,17.26
2018-04-28T18:16:31.416Z,17.24
2018-04-28T18:18:59.710Z,17.17
2018-04-28T18:21:28.798Z,17.10
2018-04-28T18:23:57.135Z,17.02
2018-04-28T18:26:25.535Z,16.99
2018-04-28T18:28:54.503Z,16.94
2018-04-28T18:31:22.827Z,16.89
2018-04-28T18:33:51.186Z,16.83
2018-04-28T18:36:19.538Z,16.83
2018-04-28T18:38:48.326Z,16.73
2018-04-28T18:41:17.194Z,16.62
2018-04-28T18:43:45.519Z,16.56
2018-04-28T18:46:13.810Z,16.53
2018-04-28T18:48:42.107Z,16.56
2018-04-28T18:51:10.430Z,16.52
2018-04-28T18:53:38.716Z,16.47
2018-04-28T18:56:07.776Z,16.47
2018-04-28T18:58:36.135Z,16.45
2018-04-28T19:01:05.082Z,16.48
2018-04-28T19:03:33.487Z,16.52
2018-04-28T19:06:01.831Z,16.57
2018-04-28T19:08:30.902Z,16.53
2018-04-28T19:10:59.218Z,16.53
2018-04-28T19:13:27.860Z,16.55
2018-04-28T19:15:56.399Z,16.51
2018-04-28T19:18:25.803Z,16.49
2018-04-28T19:20:54.827Z,16.53
2018-04-28T19:23:24.056Z,16.49
2018-04-28T19:25:53.620Z,16.47
2018-04-28T19:28:21.915Z,16.40
2018-04-28T19:30:50.202Z,16.36
2018-04-28T19:33:18.716Z,16.37
2018-04-28T19:35:51.818Z,16.37
2018-04-28T19:38:20.925Z,16.35
2018-04-28T19:40:49.970Z,16.29
2018-04-28T19:43:18.256Z,16.30
2018-04-28T19:45:46.535Z,16.29
2018-04-28T19:48:15.251Z,16.22
2018-04-28T19:50:43.535Z,16.17
2018-04-28T19:53:12.210Z,16.17
2018-04-28T19:55:41.224Z,16.19
2018-04-28T19:58:11.480Z,16.15
2018-04-28T20:00:39.768Z,16.14
2018-04-28T20:03:08.561Z,16.07
2018-04-28T20:05:36.942Z,16.02
2018-04-28T20:08:06.108Z,15.96
2018-04-28T20:10:34.574Z,15.93
2018-04-28T20:13:03.167Z,15.88
2018-04-28T20:15:31.572Z,15.82
2018-04-28T20:18:00.329Z,15.76
2018-04-28T20:20:29.379Z,15.67
2018-04-28T20:23:16.280Z,15.59
2018-04-28T20:25:44.559Z,15.48
2018-04-28T20:28:12.836Z,15.50
2018-04-28T20:30:41.721Z,15.55
2018-04-28T20:33:10.110Z,15.49
2018-04-28T20:35:38.400Z,15.50
2018-04-28T20:38:06.758Z,15.50
2018-04-28T20:40:35.775Z,15.41
2018-04-28T20:43:04.104Z,15.39
2018-04-28T20:45:33.143Z,15.29
2018-04-28T20:48:01.491Z,15.23
2018-04-28T20:50:30.355Z,15.25
2018-04-28T20:52:59.613Z,15.26
2018-04-28T20:55:28.318Z,15.25
2018-04-28T20:57:58.431Z,15.09
2018-04-28T21:00:27.814Z,14.99
2018-04-28T21:02:56.275Z,14.84
2018-04-28T21:05:25.796Z,14.75
2018-04-28T21:07:54.865Z,14.69
2018-04-28T21:10:23.419Z,14.66
2018-04-28T21:12:53.065Z,14.53
2018-04-28T21:15:27.246Z,14.42
2018-04-28T21:17:55.534Z,14.54
2018-04-28T21:20:24.406Z,14.73
2018-04-28T21:22:52.909Z,14.67
2018-04-28T21:25:21.527Z,14.75
2018-04-28T21:27:49.820Z,14.76
2018-04-28T21:30:19.197Z,14.67
2018-04-28T21:32:47.758Z,14.64
2018-04-28T21:35:16.083Z,14.53
2018-04-28T21:37:44.423Z,14.41
2018-04-28T21:40:12.682Z,14.37
2018-04-28T21:42:40.972Z,14.28
2018-04-28T21:45:09.287Z,14.30
2018-04-28T21:47:40.064Z,14.23
2018-04-28T21:50:10.043Z,14.19
2018-04-28T21:52:38.391Z,14.02
2018-04-28T21:55:06.669Z,13.94
2018-04-28T21:57:34.967Z,13.89
2018-04-28T22:00:03.555Z,13.81
2018-04-28T22:02:31.835Z,13.77
2018-04-28T22:05:00.490Z,13.78
2018-04-28T22:07:28.870Z,13.69
2018-04-28T22:09:57.157Z,13.65
2018-04-28T22:12:25.515Z,13.57
2018-04-28T22:14:53.851Z,13.57
2018-04-28T22:17:22.698Z,13.56
2018-04-28T22:19:50.978Z,13.50
2018-04-28T22:22:19.354Z,13.48
2018-04-28T22:24:47.978Z,13.45
2018-04-28T22:27:16.262Z,13.42
2018-04-28T22:29:44.579Z,13.37
2018-04-28T22:32:13.290Z,13.27
2018-04-28T22:34:41.584Z,13.28
2018-04-28T22:37:09.911Z,13.25
2018-04-28T22:39:39.046Z,13.17
2018-04-28T22:42:07.691Z,13.13
2018-04-28T22:44:36.019Z,13.17
2018-04-28T22:47:04.299Z,13.22
2018-04-28T22:49:32.595Z,13.15
2018-04-28T22:52:01.662Z,13.14
2018-04-28T22:54:29.950Z,13.14
2018-04-28T22:56:58.230Z,13.15
2018-04-28T22:59:26.731Z,13.11
2018-04-28T23:01:55.169Z,13.14
2018-04-28T23:04:23.454Z,13.14
2018-04-28T23:06:51.846Z,13.15
2018-04-28T23:09:20.115Z,13.17
2018-04-28T23:11:49.315Z,13.19
2018-04-28T23:14:17.598Z,13.19
2018-04-28T23:16:45.883Z,13.22
2018-04-28T23:19:14.327Z,13.26
2018-04-28T23:21:42.628Z,13.31
2018-04-28T23:24:10.926Z,13.37
2018-04-28T23:26:39.791Z,13.42
2018-04-28T23:29:08.104Z,13.47
2018-04-28T23:31:36.575Z,13.53
2018-04-28T23:34:04.892Z,13.60
2018-04-28T23:36:33.172Z,13.56
2018-04-28T23:39:05.156Z,13.53
2018-04-28T23:41:33.443Z,13.58
2018-04-28T23:44:01.734Z,13.61
2018-04-28T23:46:30.060Z,13.69
2018-04-28T23:48:58.655Z,13.82
2018-04-28T23:51:27.203Z,13.87
2018-04-28T23:53:55.531Z,13.89
2018-04-28T23:56:24.127Z,13.89
2018-04-28T23:58:52.500Z,13.90
